This is the latest recevied weather packets stored in our database for station/object EA2MKR. If no packets are shown the sender has not sent any weather packets the latest 10 day(s).
| Time | Temp. | Humidity | Pressure | Rain* | Wind** | Luminosity | Snow |
|---|---|---|---|---|---|---|---|
| 1787864223 | 19.44° C | 55% | 951.5 hPa | 0 mm | - | - | - |
| 1787863919 | 19.44° C | 53% | 951.4 hPa | 0 mm | - | - | - |
| 1787863503 | 20° C | 53% | 951.3 hPa | 0 mm | - | - | - |
| 1787863203 | 20° C | 52% | 951.2 hPa | 0 mm | - | - | - |
| 1787863021 | 20° C | 52% | 951 hPa | 0 mm | - | - | - |
| 1787862720 | 20° C | 52% | 951 hPa | 0 mm | - | - | - |
| 1787862420 | 20° C | 53% | 950.8 hPa | 0 mm | - | - | - |
| 1787861993 | - | - | 950.8 hPa | 0 mm | - | - | - |
| 1787861698 | - | - | 950.8 hPa | 0 mm | - | - | - |
| 1787861491 | 19.44° C | 56% | 950.6 hPa | 0 mm | - | - | - |
| 1787861191 | 19.44° C | 56% | 950.6 hPa | 0 mm | - | - | - |
| 1787860992 | 19.44° C | 56% | 950.5 hPa | 0 mm | - | - | - |
| 1787860568 | 19.44° C | 56% | 950.6 hPa | 0 mm | - | - | - |
| 1787860268 | 19.44° C | 56% | 950.5 hPa | 0 mm | - | - | - |
| 1787859964 | 19.44° C | 56% | 950.4 hPa | 0 mm | - | - | - |
| 1787859662 | 19.44° C | 56% | 950.2 hPa | 0 mm | - | - | - |
| 1787859362 | 20° C | 54% | 950 hPa | 0 mm | - | - | - |
| 1787859176 | 20.56° C | 51% | 950.1 hPa | 0 mm | - | - | - |
| 1787858754 | 21.11° C | 50% | 950.1 hPa | 0 mm | - | - | - |
| 1787858454 | 21.11° C | 49% | 950 hPa | 0 mm | - | - | - |
| 1787858154 | 21.67° C | 48% | 950 hPa | 0 mm | - | - | - |
| 1787857852 | 22.22° C | 46% | 949.9 hPa | 0 mm | - | - | - |
| 1787857662 | 22.78° C | 43% | 949.8 hPa | 0 mm | - | - | - |
| 1787857365 | 22.78° C | 43% | 949.7 hPa | 0 mm | - | - | - |
| 1787856948 | 23.33° C | 42% | 949.7 hPa | 0 mm | - | - | - |
* Rain latest hour (hover to see other rain measurements)
** Current wind speed in m/s (hover to see current wind gust speed)